AirNav   Everest Fuels
 
 605 users online  

02WI Beer Airport
Hudson, Wisconsin, USA

GOING TO HUDSON?


FAA INFORMATION EFFECTIVE 26 JANUARY 2023

Location

FAA Identifier: 02WI
Lat/Long: 45-01-54.8800N 092-39-20.7230W
45-01.914667N 092-39.345383W
45.0319111,-92.6557564
(estimated)
Elevation: 920 ft. / 280 m (estimated)
Variation: 03E (1985)
From city: 7 miles NE of HUDSON, WI
Time zone: UTC -6 (UTC -5 during Daylight Saving Time)
Zip code: 54016

Airport Operations

Airport use: Private use. Permission required prior to landing
Activation date: 12/1988
Control tower: no
ARTCC: MINNEAPOLIS CENTER
FSS: GREEN BAY FLIGHT SERVICE STATION
Attendance: UNATNDD
Wind indicator: yes
Segmented circle: no

Airport Communications

WX AWOS-3 at RNH (9 nm NE): 120.0 (715-246-3202)
WX AWOS-3 at 21D (9 nm W): 120.075 (651-779-5949)
WX AWOS-3 at OEO (17 nm N): 119.925 (715-294-3845)
WX ASOS at STP (18 nm W): 118.35 (651-312-8888)
WX AWOS-3 at SGS (19 nm SW): 119.425 (651-457-8120)

Nearby radio navigation aids

VOR radial/distance  VOR name  Freq  Var
MSPr070/26.0MINNEAPOLIS VOR/DME115.3002E
GEPr097/31.1GOPHER VORTAC117.3006E
FGTr037/32.9FARMINGTON VORTAC115.7006E
FCMr069/35.7FLYING CLOUD VOR/DME117.7001E

Airport Services

Runway Information

Runway 18/36

Dimensions: 2200 x 60 ft. / 671 x 18 m
Surface: turf
RUNWAY 18  RUNWAY 36
Traffic pattern: leftleft
Displaced threshold: 800 ft.no
Obstructions: 40 ft. pline, markednone

Airport Ownership and Management from official FAA records

Ownership: Privately-owned
Owner: RICHARD BEER
1150 COUNTY RD A
HUDSON, WI 54016
Phone 715-386-2282
Manager: DAN BEER
1119 COUNTY RD A
HUDSON, WI 54016
Phone 715-386-5068

Airport Operational Statistics

Aircraft based on the field: 3
Single engine airplanes: 2
Ultralights: 1
    

Additional Remarks

FOR CD CTC MINNEAPOLIS ARTCC AT 651-463-5588.

Instrument Procedures

There are no published instrument procedures at 02WI.

Some nearby airports with instrument procedures:

KRNH - New Richmond Regional Airport (9 nm NE)
21D - Lake Elmo Airport (9 nm W)
KOEO - L O Simenstad Municipal Airport (17 nm N)
KSTP - St Paul Downtown Airport Holman Field (18 nm W)
KAHH - Amery Municipal Airport (19 nm NE)
KSGS - South St Paul Municipal Airport/Richard E Fleming Field (19 nm SW)
 
Loc | Ops | Rwys | IFR | FBO | Links
Com | Nav | Svcs | Stats | Notes
Area around 02WI (Beer Airport)
 
Road maps at: MapQuest Bing Google
 
Aerial photo
No photo
 
Sectional chart

 
Airport distance calculator
Flying to Beer Airport? Find the distance to fly.

From to 02WI

Sunrise and sunset
Times for 27-Jan-2023
 Local
(UTC-6)
 Zulu
(UTC)
Morning civil twilight07:0513:05
Sunrise07:3713:37
Sunset17:1023:10
Evening civil twilight17:4223:42

Current date and time
Zulu (UTC)  27-Jan-2023 11:22:37
Local (UTC-6)  27-Jan-2023 05:22:37
 
METAR
K21D 
9nm W 
271055Z AUTO 18009KT 2 1/2SM -SN M04/M05 A2942 RMK AO2
KRNH 
9nm NE 
271055Z AUTO 19011KT 2 1/2SM -SN OVC013 M04/M04 A2941 RMK AO2 T10451045
KOEO 
16nm N 
271055Z AUTO 17009KT 1 1/2SM OVC014 M04/M04 A2943 RMK AO2 VIS 1V3 T10451045 PWINO
KSTP 
18nm W 
271101Z AUTO 15007KT 4SM -SN BR OVC011 M03/M04 A2942 RMK AO2 P0000 T10281044
TAF
KRNH 
9nm NE 
271000Z 2710/2806 18015G24KT 4SM -SN BR OVC015 TEMPO 2710/2712 2SM -SN BR BKN008 FM271300 26013G21KT 4SM BLSN OVC009 FM272200 30016G24KT P6SM BKN025 FM280200 30013KT P6SM BKN040
NOTAMs
Click for the latest NOTAMs
NOTAMs are issued by the DoD/FAA and will open in a separate window not controlled by AirNav.

 

 
 

Would you like to see your business listed on this page?

 If your business provides an interesting product or service to pilots, flight crews, aircraft, or users of the Beer Airport, you should consider listing it here.  To start the listing process, click on the button below
 
Add a business
 

Other Pages about Beer Airport

Update a link
 
Copyright © AirNav, LLC. All rights reserved. Privacy Policy  Contact